Time;durP1;ratioP1;P1;durP2;ratioP2;P2;SDS_P1;SDS_P2;PMS_P1;PMS_P2;Temp;Humidity;BMP_temperature;BMP_pressure;BME280_temperature;BME280_humidity;BME280_pressure;Samples;Min_cycle;Max_cycle;Signal;HPM_P1;HPM_P2
2023/01/28 00:01:41;;;;;;;7.00;4.30;;;;;;;2.27;100.00;100001.16;5130205;27;20186;-79
2023/01/28 00:04:09;;;;;;;6.10;3.70;;;;;;;2.30;100.00;100005.44;5131762;27;20756;-78
2023/01/28 00:06:38;;;;;;;5.77;3.80;;;;;;;2.24;100.00;100001.19;5135562;27;20241;-78
2023/01/28 00:09:06;;;;;;;5.53;4.57;;;;;;;2.32;100.00;100001.09;5131722;27;20191;-78
2023/01/28 00:11:36;;;;;;;3.87;3.47;;;;;;;2.21;100.00;99996.00;5133426;27;20186;-78
2023/01/28 00:14:05;;;;;;;5.37;4.40;;;;;;;2.21;100.00;100000.38;5127246;27;20251;-78
2023/01/28 00:16:34;;;;;;;5.13;4.03;;;;;;;2.24;100.00;100003.81;5132463;27;20197;-78
2023/01/28 00:19:02;;;;;;;5.13;3.70;;;;;;;2.24;100.00;100006.44;5130674;27;20649;-79
2023/01/28 00:21:32;;;;;;;6.07;4.20;;;;;;;2.23;100.00;100002.09;5131713;27;20206;-78
2023/01/28 00:24:00;;;;;;;6.60;3.90;;;;;;;2.35;100.00;100014.09;5127300;27;20201;-79
2023/01/28 00:26:29;;;;;;;6.90;4.70;;;;;;;2.25;100.00;100008.16;5128661;27;20302;-79
2023/01/28 00:28:58;;;;;;;5.30;3.97;;;;;;;2.30;100.00;100014.16;5125614;27;20202;-78
2023/01/28 00:31:27;;;;;;;7.17;4.40;;;;;;;2.27;100.00;100008.13;5126715;27;20190;-78
2023/01/28 00:33:57;;;;;;;4.70;3.83;;;;;;;2.40;100.00;100009.63;5124129;27;20206;-79
2023/01/28 00:36:26;;;;;;;4.33;3.73;;;;;;;2.21;100.00;99998.63;5132654;27;20198;-78
2023/01/28 00:38:59;;;;;;;5.83;3.80;;;;;;;2.20;100.00;100007.34;5133698;27;20657;-78
2023/01/28 00:41:32;;;;;;;5.73;3.53;;;;;;;2.26;100.00;100002.03;5130712;27;20206;-78
2023/01/28 00:44:04;;;;;;;4.77;3.70;;;;;;;2.21;100.00;100001.22;5127525;27;20197;-78
2023/01/28 00:46:32;;;;;;;5.23;4.03;;;;;;;2.20;100.00;99999.50;5123973;27;20221;-78
2023/01/28 00:49:01;;;;;;;4.53;3.90;;;;;;;2.26;100.00;99998.56;5129747;27;20189;-79
2023/01/28 00:51:29;;;;;;;6.03;3.53;;;;;;;2.15;100.00;99992.66;5125506;27;20638;-79
2023/01/28 00:53:58;;;;;;;5.90;3.70;;;;;;;2.11;100.00;99989.22;5129731;27;20195;-79
2023/01/28 00:56:26;;;;;;;5.10;4.03;;;;;;;2.13;100.00;99990.06;5136060;27;20194;-78
2023/01/28 00:58:55;;;;;;;7.87;3.77;;;;;;;2.09;100.00;99982.28;5128181;27;20301;-79
2023/01/28 01:01:26;;;;;;;7.50;3.93;;;;;;;2.17;100.00;99983.88;5127108;27;20247;-78
2023/01/28 01:04:01;;;;;;;8.20;4.40;;;;;;;2.25;100.00;99983.78;5132461;27;20285;-79
2023/01/28 01:06:31;;;;;;;7.83;3.90;;;;;;;2.11;100.00;99976.16;5128741;27;20220;-78
2023/01/28 01:09:00;;;;;;;5.57;3.80;;;;;;;2.15;100.00;99984.81;5132680;27;20197;-77
2023/01/28 01:11:28;;;;;;;6.13;3.40;;;;;;;2.20;100.00;99983.84;5131443;27;20190;-78
2023/01/28 01:14:00;;;;;;;6.20;4.13;;;;;;;2.24;100.00;99979.44;5129760;27;20546;-78
2023/01/28 01:16:32;;;;;;;5.40;3.87;;;;;;;2.22;100.00;99984.69;5129280;27;20275;-78
2023/01/28 01:19:02;;;;;;;6.30;3.70;;;;;;;2.19;100.00;99983.84;5131086;27;20194;-78
2023/01/28 01:21:31;;;;;;;5.87;3.83;;;;;;;2.22;100.00;99989.03;5124129;27;20187;-78
2023/01/28 01:23:59;;;;;;;4.47;3.93;;;;;;;2.09;100.00;99983.16;5129737;27;20201;-78
2023/01/28 01:26:28;;;;;;;4.80;3.60;;;;;;;2.09;100.00;99990.13;5127133;27;20217;-78
2023/01/28 01:28:58;;;;;;;7.70;3.93;;;;;;;1.89;100.00;99991.31;5128634;27;20197;-78
2023/01/28 01:31:26;;;;;;;7.63;4.23;;;;;;;1.81;100.00;99984.47;5130199;27;20589;-79
2023/01/28 01:33:56;;;;;;;7.43;4.10;;;;;;;1.77;100.00;99988.88;5130937;27;20197;-78
2023/01/28 01:36:25;;;;;;;6.73;4.23;;;;;;;1.75;100.00;99993.28;5127564;27;20195;-78
2023/01/28 01:38:55;;;;;;;6.83;4.37;;;;;;;1.63;100.00;99990.81;5129676;27;20187;-78
2023/01/28 01:41:27;;;;;;;8.57;4.50;;;;;;;1.54;100.00;99997.03;5129696;27;20229;-78
2023/01/28 01:43:58;;;;;;;7.33;4.17;;;;;;;1.46;100.00;99985.88;5129026;27;20206;-78
2023/01/28 01:46:34;;;;;;;7.77;4.27;;;;;;;1.37;100.00;99976.41;5130341;27;20230;-78
2023/01/28 01:49:13;;;;;;;7.13;4.67;;;;;;;1.39;100.00;99982.47;5128111;27;20202;-78
2023/01/28 01:51:43;;;;;;;6.40;4.77;;;;;;;1.36;100.00;99981.66;5129943;27;20198;-78
2023/01/28 01:54:13;;;;;;;9.93;5.10;;;;;;;1.41;100.00;99996.34;5129116;27;20255;-78
2023/01/28 01:56:43;;;;;;;6.60;4.63;;;;;;;1.40;100.00;99994.63;5127331;27;20194;-78
2023/01/28 01:59:15;;;;;;;9.07;4.50;;;;;;;1.49;100.00;99998.00;5127758;27;20198;-78
2023/01/28 02:01:45;;;;;;;6.20;4.27;;;;;;;1.42;100.00;100002.44;5129065;27;20193;-77
2023/01/28 02:04:23;;;;;;;7.53;4.60;;;;;;;1.39;100.00;99997.25;5127273;27;20256;-78
2023/01/28 02:06:52;;;;;;;7.73;4.30;;;;;;;1.48;100.00;100006.72;5129384;27;20217;-78
2023/01/28 02:09:25;;;;;;;6.30;4.13;;;;;;;1.42;100.00;100008.50;5123634;27;20190;-78
2023/01/28 02:11:58;;;;;;;6.13;4.00;;;;;;;1.47;100.00;100005.84;5115482;27;20200;-78
2023/01/28 02:14:31;;;;;;;7.57;4.00;;;;;;;1.38;100.00;100009.44;5125574;27;20254;-79
2023/01/28 02:17:01;;;;;;;6.60;4.17;;;;;;;1.32;100.00;100008.66;5129916;27;20205;-78
2023/01/28 02:19:38;;;;;;;4.03;3.50;;;;;;;1.43;100.00;100012.84;5130550;27;20202;-78
2023/01/28 02:22:28;;;;;;;6.53;4.60;;;;;;;1.34;100.00;100015.56;5082984;28;20196;-79
2023/01/28 02:25:19;;;;;;;5.97;3.90;;;;;;;1.31;100.00;100017.38;5085634;28;20233;-78
2023/01/28 02:28:10;;;;;;;5.77;4.03;;;;;;;1.38;100.00;100019.88;5084289;28;20215;-78
2023/01/28 02:30:42;;;;;;;5.27;4.37;;;;;;;1.35;100.00;100019.03;5087227;28;20187;-78
2023/01/28 02:33:16;;;;;;;7.27;4.23;;;;;;;1.34;100.00;100017.31;5089872;28;20195;-78
2023/01/28 02:35:49;;;;;;;6.93;4.30;;;;;;;1.31;100.00;100018.22;5085040;28;20253;-78
2023/01/28 02:38:23;;;;;;;5.67;4.60;;;;;;;1.29;100.00;100022.59;5087790;28;20199;-79
2023/01/28 02:41:02;;;;;;;6.53;3.93;;;;;;;1.24;100.00;100020.94;5115539;27;20250;-79
2023/01/28 02:43:34;;;;;;;5.70;4.00;;;;;;;1.21;100.00;100024.44;5129174;27;20244;-78
2023/01/28 02:49:00;;;;;;;7.53;3.87;;;;;;;1.13;100.00;100027.13;5133938;27;20210;-78
2023/01/28 02:51:41;;;;;;;7.67;3.90;;;;;;;1.11;100.00;100028.03;5121636;27;20213;-79
2023/01/28 02:54:13;;;;;;;6.33;4.10;;;;;;;1.14;100.00;100033.22;5124736;27;20202;-78
2023/01/28 02:56:49;;;;;;;5.10;3.83;;;;;;;1.26;100.00;100037.44;5129418;27;20263;-78
2023/01/28 02:59:35;;;;;;;5.73;3.90;;;;;;;1.29;100.00;100043.50;5133618;27;20189;-79
2023/01/28 03:02:13;;;;;;;7.03;4.10;;;;;;;1.27;100.00;100049.63;5123540;27;20202;-79
2023/01/28 03:04:47;;;;;;;4.80;3.63;;;;;;;1.29;100.00;100047.84;5129421;27;20306;-78
2023/01/28 03:07:18;;;;;;;7.30;4.17;;;;;;;1.28;100.00;100046.13;5128825;27;20224;-79
2023/01/28 03:09:50;;;;;;;5.70;4.10;;;;;;;1.26;100.00;100043.53;5122651;27;20198;-78
2023/01/28 03:38:00;;;;;;;4.83;3.00;;;;;;;1.58;100.00;100052.69;5127768;27;20205;-78
2023/01/28 03:40:28;;;;;;;5.07;3.47;;;;;;;1.55;100.00;100056.22;5130331;27;20195;-78
2023/01/28 03:42:56;;;;;;;4.67;3.13;;;;;;;1.54;100.00;100062.28;5129184;27;20199;-79
2023/01/28 03:45:25;;;;;;;5.70;3.20;;;;;;;1.53;100.00;100063.19;5124886;27;20224;-78
2023/01/28 03:47:56;;;;;;;6.13;3.90;;;;;;;1.54;100.00;100067.50;5124759;27;20263;-79
2023/01/28 03:50:25;;;;;;;9.80;3.80;;;;;;;1.55;100.00;100057.97;5123682;27;20661;-78
2023/01/28 03:52:53;;;;;;;5.63;3.37;;;;;;;1.58;100.00;100061.41;5067049;28;20188;-78
2023/01/28 03:55:24;;;;;;;5.10;3.70;;;;;;;1.62;100.00;100062.19;5066052;28;20636;-78
2023/01/28 03:57:52;;;;;;;5.10;3.57;;;;;;;1.65;100.00;100070.03;5046990;28;20212;-79
2023/01/28 04:00:22;;;;;;;6.37;4.20;;;;;;;1.61;100.00;100065.69;5048002;28;20201;-78
2023/01/28 04:02:51;;;;;;;4.80;3.63;;;;;;;1.68;100.00;100068.22;5048348;28;20284;-80
2023/01/28 04:05:21;;;;;;;4.67;3.77;;;;;;;1.72;100.00;100066.41;5044681;28;20220;-78
2023/01/28 04:07:51;;;;;;;4.97;4.03;;;;;;;1.53;100.00;100073.63;5038529;28;20809;-78
2023/01/28 04:10:21;;;;;;;7.07;4.40;;;;;;;1.53;100.00;100071.00;5050922;28;20196;-78
2023/01/28 04:12:50;;;;;;;6.63;4.40;;;;;;;1.58;100.00;100066.63;5085239;28;20188;-78
2023/01/28 04:15:18;;;;;;;6.67;4.27;;;;;;;1.57;100.00;100064.88;5085631;28;20191;-79
2023/01/28 04:17:47;;;;;;;7.57;4.70;;;;;;;1.55;100.00;100065.81;5089556;28;20199;-78
2023/01/28 04:20:16;;;;;;;5.70;4.33;;;;;;;1.55;100.00;100061.44;5083132;28;20210;-78
2023/01/28 04:22:46;;;;;;;6.83;4.40;;;;;;;1.63;100.00;100074.38;5116468;27;20235;-79
2023/01/28 04:25:15;;;;;;;5.97;4.10;;;;;;;1.62;100.00;100072.66;5133468;27;20203;-78
2023/01/28 04:27:45;;;;;;;5.80;4.13;;;;;;;1.71;100.00;100060.34;5129838;27;20194;-78
2023/01/28 04:30:15;;;;;;;7.50;4.03;;;;;;;1.61;100.00;100068.31;5132357;27;20240;-78
2023/01/28 04:32:45;;;;;;;6.37;4.37;;;;;;;1.57;100.00;100064.03;5087928;28;20315;-78
2023/01/28 04:35:13;;;;;;;5.70;4.10;;;;;;;1.61;100.00;100066.56;5081874;28;20199;-78
2023/01/28 04:37:43;;;;;;;4.53;3.83;;;;;;;1.57;100.00;100066.63;5088639;28;20208;-79
2023/01/28 04:40:13;;;;;;;5.67;4.43;;;;;;;1.55;100.00;100066.66;5089792;28;20260;-78
2023/01/28 04:42:41;;;;;;;6.73;3.87;;;;;;;1.51;100.00;100062.34;5087807;28;20196;-78
2023/01/28 04:45:10;;;;;;;5.30;4.13;;;;;;;1.52;100.00;100068.44;5085793;28;20211;-78
2023/01/28 04:47:39;;;;;;;6.30;4.10;;;;;;;1.58;100.00;100070.97;5085164;28;20196;-78
2023/01/28 04:50:08;;;;;;;4.70;3.83;;;;;;;1.50;100.00;100071.06;5093928;27;20195;-78
2023/01/28 04:52:37;;;;;;;5.73;4.23;;;;;;;1.48;100.00;100070.22;5097941;27;20193;-78
2023/01/28 04:55:06;;;;;;;5.60;4.07;;;;;;;1.55;100.00;100074.50;5132810;27;20190;-78
2023/01/28 04:57:36;;;;;;;4.50;3.60;;;;;;;1.49;100.00;100078.91;5129830;27;20186;-78
2023/01/28 05:00:05;;;;;;;6.70;3.57;;;;;;;1.53;100.00;100077.97;5132730;27;20186;-79
2023/01/28 05:02:33;;;;;;;5.70;3.53;;;;;;;1.55;100.00;100078.84;5131531;27;20251;-78
2023/01/28 05:05:19;;;;;;;6.27;3.87;;;;;;;1.51;100.00;100075.41;5131041;27;21014;-79
2023/01/28 05:07:52;;;;;;;3.83;3.43;;;;;;;1.54;100.00;100079.72;5109276;28;20235;-79
2023/01/28 05:10:21;;;;;;;5.23;3.20;;;;;;;1.49;100.00;100074.56;5125433;27;20198;-78
2023/01/28 05:12:50;;;;;;;5.23;3.37;;;;;;;1.54;100.00;100077.09;5130805;27;20240;-78
2023/01/28 05:15:22;;;;;;;5.60;3.37;;;;;;;1.49;100.00;100082.38;5125566;27;20193;-79
2023/01/28 05:17:50;;;;;;;5.13;3.33;;;;;;;1.56;100.00;100084.06;5094085;28;20193;-78
2023/01/28 05:20:20;;;;;;;6.50;3.63;;;;;;;1.56;100.00;100084.06;5132257;27;20186;-78
2023/01/28 05:22:49;;;;;;;4.73;3.40;;;;;;;1.53;100.00;100084.06;5130746;28;20206;-79
2023/01/28 05:25:18;;;;;;;4.27;3.23;;;;;;;1.59;100.00;100073.56;5127919;27;20275;-79
2023/01/28 05:27:50;;;;;;;3.67;3.13;;;;;;;1.57;100.00;100087.53;5125879;27;20186;-78
2023/01/28 05:30:20;;;;;;;4.00;2.80;;;;;;;1.52;100.00;100084.09;5125587;27;20205;-78
2023/01/28 05:32:48;;;;;;;7.53;5.00;;;;;;;1.66;100.00;100090.88;5126448;27;20194;-79
2023/01/28 05:35:16;;;;;;;44.00;31.30;;;;;;;1.57;100.00;100092.75;5129021;27;20198;-79
2023/01/28 05:37:47;;;;;;;11.77;9.50;;;;;;;1.54;100.00;100091.00;5127498;27;20202;-79
2023/01/28 05:40:16;;;;;;;25.77;23.07;;;;;;;1.63;100.00;100082.19;5129759;27;20203;-79
2023/01/28 05:42:49;;;;;;;13.87;12.37;;;;;;;1.58;100.00;100082.28;5128871;27;20190;-79
2023/01/28 05:45:17;;;;;;;17.63;15.80;;;;;;;1.66;100.00;100090.88;5090801;28;20214;-79
2023/01/28 05:47:46;;;;;;;12.03;10.87;;;;;;;1.61;100.00;100091.81;5121538;28;20195;-79
2023/01/28 05:50:15;;;;;;;8.70;6.70;;;;;;;1.53;100.00;100093.66;5129988;27;20190;-79
2023/01/28 05:52:44;;;;;;;7.67;4.47;;;;;;;1.59;100.00;100094.44;5073519;28;20192;-79
2023/01/28 05:55:14;;;;;;;3.57;2.70;;;;;;;1.61;100.00;100104.88;5103396;28;20195;-79
2023/01/28 05:57:44;;;;;;;5.07;4.07;;;;;;;1.49;100.00;100115.47;5065134;28;20330;-80
2023/01/28 06:00:14;;;;;;;6.27;4.10;;;;;;;1.55;100.00;100118.00;5106270;28;20199;-80
2023/01/28 06:02:43;;;;;;;5.60;3.70;;;;;;;1.73;100.00;100102.09;5103259;28;20704;-79
2023/01/28 06:05:11;;;;;;;7.60;3.70;;;;;;;1.49;100.00;100120.69;5101365;28;20245;-79
2023/01/28 06:07:40;;;;;;;4.63;2.77;;;;;;;1.41;100.00;100118.16;5102715;28;20689;-79
2023/01/28 06:10:10;;;;;;;17.07;10.50;;;;;;;1.39;100.00;100115.56;5106006;27;20193;-79
2023/01/28 06:12:43;;;;;;;7.03;4.57;;;;;;;1.49;100.00;100123.28;5092668;27;20657;-79
2023/01/28 06:15:12;;;;;;;7.83;7.03;;;;;;;1.39;100.00;100122.53;5123783;27;20251;-79
2023/01/28 06:17:40;;;;;;;6.37;4.70;;;;;;;1.45;100.00;100127.69;5109718;28;20203;-79
2023/01/28 06:20:11;;;;;;;5.60;5.10;;;;;;;1.39;100.00;100127.75;5110082;28;20199;-79
2023/01/28 06:22:41;;;;;;;5.77;5.10;;;;;;;1.44;100.00;100125.94;5115584;28;20234;-79
2023/01/28 06:25:09;;;;;;;4.93;3.67;;;;;;;1.39;100.00;100126.00;5112474;28;20272;-80
2023/01/28 06:27:38;;;;;;;4.20;3.70;;;;;;;1.36;100.00;100128.66;5114203;28;20214;-79
2023/01/28 06:30:10;;;;;;;36.97;29.83;;;;;;;1.42;100.00;100125.09;5111838;28;20191;-79
2023/01/28 06:32:40;;;;;;;15.50;13.80;;;;;;;1.46;100.00;100124.19;5112593;28;20217;-79
2023/01/28 06:35:09;;;;;;;11.77;10.57;;;;;;;1.42;100.00;100135.53;5040471;28;20691;-79
2023/01/28 06:37:40;;;;;;;12.27;11.20;;;;;;;1.47;100.00;100135.50;5032110;28;20228;-79
2023/01/28 06:40:10;;;;;;;6.43;4.70;;;;;;;1.44;100.00;100141.59;5030808;28;20196;-79
2023/01/28 06:42:38;;;;;;;6.40;5.80;;;;;;;1.36;100.00;100133.88;5029262;28;20190;-79
2023/01/28 06:45:10;;;;;;;6.83;4.40;;;;;;;1.38;100.00;100128.63;5026728;28;20224;-79
2023/01/28 06:47:39;;;;;;;7.17;6.30;;;;;;;1.44;100.00;100147.69;5026434;28;20252;-79
2023/01/28 06:50:11;;;;;;;22.03;19.93;;;;;;;1.46;100.00;100144.22;5027269;28;20198;-79
2023/01/28 06:52:41;;;;;;;6.27;3.47;;;;;;;1.55;100.00;100139.75;5028028;28;20202;-79
2023/01/28 06:55:11;;;;;;;4.33;3.10;;;;;;;1.48;100.00;100147.66;5035408;28;20268;-79
2023/01/28 06:57:39;;;;;;;4.20;3.23;;;;;;;1.50;100.00;100149.38;5032441;28;20232;-79
2023/01/28 07:00:14;;;;;;;3.97;2.77;;;;;;;1.48;100.00;100151.16;5079849;28;20201;-78
2023/01/28 07:02:43;;;;;;;4.57;3.00;;;;;;;1.49;100.00;100157.22;5111988;27;20194;-79
2023/01/28 07:05:15;;;;;;;4.07;3.03;;;;;;;1.43;100.00;100166.84;5046844;28;20229;-79
2023/01/28 07:07:44;;;;;;;4.10;2.30;;;;;;;1.36;100.00;100169.56;5045055;28;20263;-79
2023/01/28 07:10:12;;;;;;;5.27;2.67;;;;;;;1.46;100.00;100165.09;5048278;28;20197;-79
2023/01/28 07:12:41;;;;;;;15.47;6.40;;;;;;;1.52;100.00;100163.28;5043524;28;20212;-78
2023/01/28 07:15:15;;;;;;;25.07;13.47;;;;;;;1.51;100.00;100171.13;5049159;28;20189;-79
2023/01/28 07:17:44;;;;;;;29.13;14.10;;;;;;;1.40;100.00;100151.22;5051262;28;20196;-79
2023/01/28 07:20:14;;;;;;;10.17;6.80;;;;;;;1.53;100.00;100169.34;5045375;28;20192;-78
2023/01/28 07:22:46;;;;;;;7.73;5.47;;;;;;;1.58;100.00;100173.66;5057491;28;20729;-78
2023/01/28 07:25:15;;;;;;;4.20;2.73;;;;;;;1.42;100.00;100177.31;5111539;28;20272;-78
2023/01/28 07:27:52;;;;;;;4.17;3.20;;;;;;;1.42;100.00;100167.72;5109044;28;20191;-78
2023/01/28 07:30:22;;;;;;;4.90;3.57;;;;;;;1.32;100.00;100173.06;5116992;27;20206;-78
2023/01/28 07:32:54;;;;;;;5.97;3.23;;;;;;;1.39;100.00;100174.75;5108420;28;20187;-78
2023/01/28 07:35:26;;;;;;;3.57;3.13;;;;;;;1.32;100.00;100171.31;5107479;28;20266;-80
2023/01/28 07:37:56;;;;;;;6.80;4.30;;;;;;;1.39;100.00;100178.22;5105437;28;20202;-78
2023/01/28 07:40:25;;;;;;;8.97;6.13;;;;;;;1.41;100.00;100176.44;5115502;28;20228;-79
2023/01/28 07:42:54;;;;;;;7.03;4.47;;;;;;;1.39;100.00;100178.22;5109645;28;20195;-78
2023/01/28 07:45:25;;;;;;;3.63;2.97;;;;;;;1.42;100.00;100172.94;5103284;28;20210;-79
2023/01/28 07:47:55;;;;;;;6.13;3.70;;;;;;;1.34;100.00;100171.28;5111115;28;20202;-79
2023/01/28 07:50:24;;;;;;;3.70;3.27;;;;;;;1.35;100.00;100179.13;5105799;28;20207;-78
2023/01/28 07:52:52;;;;;;;5.37;3.80;;;;;;;1.34;100.00;100184.34;5108359;28;20199;-79
2023/01/28 07:55:21;;;;;;;13.27;7.97;;;;;;;1.30;100.00;100182.66;5115039;27;20669;-78
2023/01/28 07:57:54;;;;;;;4.77;2.87;;;;;;;1.28;100.00;100181.81;5112356;28;20251;-78
2023/01/28 08:00:26;;;;;;;7.63;4.73;;;;;;;1.35;100.00;100186.06;5113571;28;20315;-78
2023/01/28 08:02:59;;;;;;;16.50;10.53;;;;;;;1.37;100.00;100185.19;5114930;27;20252;-79
2023/01/28 08:05:37;;;;;;;6.07;3.50;;;;;;;1.35;100.00;100191.28;5131145;27;20234;-78
2023/01/28 08:08:07;;;;;;;10.20;7.23;;;;;;;1.33;100.00;100183.47;5127872;27;20205;-78
2023/01/28 08:10:35;;;;;;;8.37;5.23;;;;;;;1.40;100.00;100181.69;5123189;27;20190;-79
2023/01/28 08:13:05;;;;;;;10.03;6.60;;;;;;;1.43;100.00;100186.84;5124485;27;20198;-78
2023/01/28 08:15:35;;;;;;;6.07;2.67;;;;;;;1.35;100.00;100178.25;5125177;27;20264;-79
2023/01/28 08:18:05;;;;;;;2.87;2.40;;;;;;;1.40;100.00;100177.31;5063586;28;20308;-79
2023/01/28 08:20:35;;;;;;;5.23;4.17;;;;;;;1.38;100.00;100183.44;5068303;28;20699;-78
2023/01/28 08:23:07;;;;;;;4.70;3.17;;;;;;;1.36;100.00;100185.22;5063327;28;20250;-79
2023/01/28 08:25:36;;;;;;;5.50;4.60;;;;;;;1.41;100.00;100184.28;5046060;28;20266;-78
2023/01/28 08:28:05;;;;;;;6.07;4.70;;;;;;;1.46;100.00;100186.84;5043585;28;20197;-78
2023/01/28 08:30:39;;;;;;;4.93;3.10;;;;;;;1.57;100.00;100186.72;5048275;28;20204;-79
2023/01/28 08:33:08;;;;;;;9.20;5.97;;;;;;;1.41;100.00;100197.31;5048882;28;20216;-78
2023/01/28 08:35:37;;;;;;;6.67;4.00;;;;;;;1.39;100.00;100193.88;5060179;28;20214;-78
2023/01/28 08:38:06;;;;;;;3.17;2.87;;;;;;;1.48;100.00;100192.06;5112936;28;20707;-78
2023/01/28 08:40:35;;;;;;;5.93;5.27;;;;;;;1.63;100.00;100189.25;5112132;27;20198;-78
2023/01/28 08:43:05;;;;;;;3.77;2.73;;;;;;;1.57;100.00;100192.81;5113148;28;20240;-78
2023/01/28 08:45:35;;;;;;;3.30;1.60;;;;;;;1.46;100.00;100191.22;5109199;28;20223;-78
2023/01/28 08:48:05;;;;;;;1.77;1.50;;;;;;;1.44;100.00;100199.88;5106225;28;20191;-79
2023/01/28 08:50:36;;;;;;;4.90;2.00;;;;;;;1.40;100.00;100194.72;5113271;28;20198;-78
2023/01/28 08:53:06;;;;;;;1.93;1.73;;;;;;;1.42;100.00;100198.19;5112969;28;20199;-78
2023/01/28 08:55:34;;;;;;;2.90;2.33;;;;;;;1.45;100.00;100203.41;5115587;27;20214;-78
2023/01/28 08:58:06;;;;;;;3.47;1.27;;;;;;;1.46;100.00;100204.25;5106632;28;20255;-78
2023/01/28 09:00:36;;;;;;;3.60;2.00;;;;;;;1.42;100.00;100200.78;5106885;28;20213;-78
2023/01/28 09:03:05;;;;;;;2.80;2.13;;;;;;;1.59;100.00;100208.47;5111910;28;20195;-79
2023/01/28 09:05:34;;;;;;;6.50;4.60;;;;;;;1.65;100.00;100211.03;5111996;28;20229;-78
2023/01/28 09:08:03;;;;;;;5.40;3.97;;;;;;;1.56;100.00;100211.97;5110564;28;20223;-78
2023/01/28 09:10:31;;;;;;;12.20;8.23;;;;;;;1.57;100.00;100210.22;5113053;28;20199;-78
2023/01/28 09:13:05;;;;;;;10.83;8.97;;;;;;;1.73;100.00;100214.38;5078519;28;20233;-79
2023/01/28 09:15:35;;;;;;;10.40;5.93;;;;;;;1.73;100.00;100215.25;5112643;28;20194;-78
2023/01/28 09:18:04;;;;;;;6.27;4.77;;;;;;;1.72;100.00;100210.91;5110897;28;20244;-78
2023/01/28 09:20:32;;;;;;;3.87;2.60;;;;;;;1.76;100.00;100208.28;5105555;28;20256;-78
2023/01/28 09:23:03;;;;;;;2.03;1.60;;;;;;;1.67;100.00;100215.34;5112332;28;20284;-78
2023/01/28 09:25:31;;;;;;;3.20;1.53;;;;;;;1.68;100.00;100216.19;5112086;28;20224;-79
2023/01/28 09:27:59;;;;;;;2.87;1.30;;;;;;;1.54;100.00;100218.94;5112645;28;20256;-78
2023/01/28 09:30:29;;;;;;;3.90;1.50;;;;;;;1.60;100.00;100216.28;5113026;28;20650;-79
2023/01/28 09:33:00;;;;;;;1.80;1.70;;;;;;;1.64;100.00;100220.59;5109234;28;20206;-78
2023/01/28 09:35:30;;;;;;;2.03;1.30;;;;;;;1.77;100.00;100212.63;5113019;28;20246;-78
2023/01/28 09:37:59;;;;;;;6.47;3.57;;;;;;;1.73;100.00;100217.84;5109828;28;20195;-79
2023/01/28 09:40:34;;;;;;;12.80;9.37;;;;;;;1.85;100.00;100226.47;5109756;28;20241;-78
2023/01/28 09:43:24;;;;;;;4.97;4.33;;;;;;;1.90;100.00;100222.91;5106217;28;20199;-78
2023/01/28 09:45:55;;;;;;;5.33;2.33;;;;;;;1.84;100.00;100223.00;5116357;28;20215;-79
2023/01/28 09:48:31;;;;;;;4.50;3.30;;;;;;;1.74;100.00;100231.81;5120237;28;20195;-79
2023/01/28 09:51:00;;;;;;;8.67;4.07;;;;;;;1.82;100.00;100235.19;5111720;28;20191;-79
2023/01/28 09:53:32;;;;;;;8.33;6.20;;;;;;;1.78;100.00;100237.84;5117225;27;20191;-79
2023/01/28 09:56:06;;;;;;;2.10;1.83;;;;;;;1.74;100.00;100242.25;5113993;28;20248;-78
2023/01/28 09:58:35;;;;;;;5.63;3.37;;;;;;;1.80;100.00;100246.53;5114746;28;20229;-78
2023/01/28 10:01:23;;;;;;;2.63;1.70;;;;;;;1.93;100.00;100241.16;5112238;28;20190;-77
2023/01/28 10:04:00;;;;;;;4.83;3.40;;;;;;;2.08;100.00;100249.69;5115450;28;20665;-79
2023/01/28 10:06:42;;;;;;;2.80;1.60;;;;;;;2.04;100.00;100253.25;5115603;28;20215;-78
2023/01/28 10:09:34;;;;;;;2.30;1.53;;;;;;;1.80;100.00;100257.84;5116450;27;20264;-78
2023/01/28 10:12:23;;;;;;;6.00;3.03;;;;;;;1.90;100.00;100262.09;5111180;28;20202;-78
2023/01/28 10:15:10;;;;;;;7.10;4.03;;;;;;;1.94;100.00;100266.41;5115152;28;20190;-78
2023/01/28 10:17:43;;;;;;;7.00;5.10;;;;;;;2.20;100.00;100268.69;5109751;28;20210;-79
2023/01/28 10:20:21;;;;;;;2.23;1.40;;;;;;;2.06;100.00;100262.78;5111984;28;20279;-78
2023/01/28 10:22:56;;;;;;;5.90;3.40;;;;;;;2.21;100.00;100259.97;5116719;27;20198;-79
2023/01/28 10:25:28;;;;;;;5.50;3.30;;;;;;;1.91;100.00;100262.94;5113478;28;20190;-78
2023/01/28 10:27:56;;;;;;;7.77;3.20;;;;;;;1.92;100.00;100259.44;5116899;27;20222;-78
2023/01/28 10:30:28;;;;;;;5.77;3.10;;;;;;;2.01;100.00;100265.44;5109855;28;20195;-78
2023/01/28 10:33:03;;;;;;;3.63;2.60;;;;;;;1.97;100.00;100255.91;5112465;28;20191;-78
2023/01/28 10:35:41;;;;;;;4.20;1.87;;;;;;;1.98;100.00;100260.25;5115158;28;20224;-78
2023/01/28 10:38:16;;;;;;;3.73;2.30;;;;;;;1.97;100.00;100253.31;5117824;27;20260;-78
2023/01/28 10:40:47;;;;;;;4.60;2.60;;;;;;;2.11;100.00;100249.66;5115352;27;20201;-78
2023/01/28 10:43:18;;;;;;;4.70;3.00;;;;;;;2.19;100.00;100250.44;5110266;28;20622;-79
2023/01/28 10:46:00;;;;;;;3.23;1.90;;;;;;;2.13;100.00;100253.13;5111780;28;20267;-78
2023/01/28 10:48:33;;;;;;;3.33;1.23;;;;;;;1.94;100.00;100261.19;5110170;28;20198;-78
2023/01/28 10:51:06;;;;;;;3.23;1.77;;;;;;;2.05;100.00;100257.59;5115241;27;20273;-78
2023/01/28 10:53:37;;;;;;;2.23;1.40;;;;;;;1.88;100.00;100268.22;5114872;28;20187;-78
2023/01/28 10:56:09;;;;;;;4.13;2.60;;;;;;;1.94;100.00;100258.56;5110682;28;20346;-78
2023/01/28 10:58:59;;;;;;;3.87;2.20;;;;;;;1.91;100.00;100270.78;5114594;28;20252;-79
2023/01/28 11:01:40;;;;;;;5.63;2.03;;;;;;;1.97;100.00;100255.06;5113520;28;20187;-79
2023/01/28 11:04:22;;;;;;;2.27;1.80;;;;;;;2.10;100.00;100254.00;5109820;28;20387;-78
2023/01/28 11:07:18;;;;;;;2.53;1.40;;;;;;;2.15;100.00;100248.75;5113171;28;20214;-78
2023/01/28 11:09:48;;;;;;;3.40;1.93;;;;;;;2.23;100.00;100242.53;5113764;28;20195;-79
2023/01/28 11:12:21;;;;;;;3.40;2.57;;;;;;;2.17;100.00;100246.97;5113871;28;20646;-78
2023/01/28 11:14:54;;;;;;;5.83;2.33;;;;;;;2.35;100.00;100243.25;5114390;28;20191;-79
2023/01/28 11:17:24;;;;;;;3.90;2.80;;;;;;;2.38;100.00;100248.44;5111540;27;20191;-79
2023/01/28 11:19:53;;;;;;;7.83;3.60;;;;;;;2.52;100.00;100238.69;5114128;28;20262;-79
2023/01/28 11:22:32;;;;;;;2.73;2.20;;;;;;;2.45;100.00;100245.72;5114334;28;20191;-79
2023/01/28 11:25:01;;;;;;;3.53;2.60;;;;;;;2.46;100.00;100250.06;5114918;27;20657;-79
2023/01/28 11:27:33;;;;;;;4.77;2.30;;;;;;;2.63;100.00;100246.38;5113179;28;20211;-80
2023/01/28 11:30:03;;;;;;;2.20;2.00;;;;;;;2.56;100.00;100254.28;5114581;28;20195;-79
2023/01/28 11:32:32;;;;;;;2.87;1.60;;;;;;;2.42;100.00;100242.31;5112441;28;20199;-79
2023/01/28 11:35:00;;;;;;;4.90;2.90;;;;;;;2.28;100.00;100245.94;5113770;28;20199;-79
2023/01/28 11:37:31;;;;;;;6.03;2.20;;;;;;;2.41;100.00;100240.56;5074996;28;20251;-79
2023/01/28 11:40:19;;;;;;;4.47;1.73;;;;;;;2.34;100.00;100252.00;5117478;28;20187;-79
2023/01/28 11:42:51;;;;;;;3.87;2.43;;;;;;;2.32;100.00;100245.91;5096538;28;20219;-78
2023/01/28 11:45:25;;;;;;;2.57;1.97;;;;;;;2.49;100.00;100238.69;5117144;28;20298;-79
2023/01/28 11:48:10;;;;;;;3.00;2.03;;;;;;;2.34;100.00;100237.19;5114295;28;20661;-79
2023/01/28 11:50:47;;;;;;;3.67;1.60;;;;;;;2.25;100.00;100240.78;5114652;28;20193;-78
2023/01/28 11:53:39;;;;;;;2.97;1.53;;;;;;;2.08;100.00;100247.94;5113355;28;20195;-79
2023/01/28 11:56:41;;;;;;;4.43;1.40;;;;;;;2.25;100.00;100240.78;5116174;28;20255;-79
2023/01/28 11:59:38;;;;;;;2.80;1.30;;;;;;;2.20;100.00;100236.47;5104415;28;20649;-79
2023/01/28 12:02:25;;;;;;;3.10;1.50;;;;;;;2.30;100.00;100223.25;5114026;28;20232;-79
2023/01/28 12:05:16;;;;;;;1.80;1.60;;;;;;;2.32;100.00;100219.75;5114360;28;20226;-79
2023/01/28 12:07:51;;;;;;;3.57;2.40;;;;;;;2.10;100.00;100229.63;5110672;28;20211;-79
2023/01/28 12:10:29;;;;;;;4.33;1.90;;;;;;;2.33;100.00;100218.91;5114922;28;20236;-79
2023/01/28 12:13:20;;;;;;;2.57;1.53;;;;;;;2.36;100.00;100217.09;5115550;28;20667;-78
2023/01/28 12:16:18;;;;;;;2.93;1.63;;;;;;;2.33;100.00;100217.16;5114967;27;20221;-79